sensor_id;sensor_type;location;lat;lon;timestamp;P1;durP1;ratioP1;P2;durP2;ratioP2
47153;SDS011;32907;41.412;2.164;2023-04-23T00:00:56;11.98;;;5.93;;
47153;SDS011;32907;41.412;2.164;2023-04-23T00:03:29;9.85;;;5.15;;
47153;SDS011;32907;41.412;2.164;2023-04-23T00:06:03;12.50;;;5.57;;
47153;SDS011;32907;41.412;2.164;2023-04-23T00:08:34;11.50;;;5.72;;
47153;SDS011;32907;41.412;2.164;2023-04-23T00:11:02;10.88;;;5.88;;
47153;SDS011;32907;41.412;2.164;2023-04-23T00:13:31;11.52;;;6.47;;
47153;SDS011;32907;41.412;2.164;2023-04-23T00:15:59;15.13;;;7.05;;
47153;SDS011;32907;41.412;2.164;2023-04-23T00:18:28;11.75;;;6.80;;
47153;SDS011;32907;41.412;2.164;2023-04-23T00:20:58;14.88;;;8.98;;
47153;SDS011;32907;41.412;2.164;2023-04-23T00:23:27;14.00;;;8.15;;
47153;SDS011;32907;41.412;2.164;2023-04-23T00:25:55;15.07;;;7.72;;
47153;SDS011;32907;41.412;2.164;2023-04-23T00:28:22;15.25;;;8.13;;
47153;SDS011;32907;41.412;2.164;2023-04-23T00:30:53;19.17;;;9.57;;
47153;SDS011;32907;41.412;2.164;2023-04-23T00:33:21;19.50;;;8.98;;
47153;SDS011;32907;41.412;2.164;2023-04-23T00:35:49;17.02;;;8.23;;
47153;SDS011;32907;41.412;2.164;2023-04-23T00:38:17;16.15;;;7.25;;
47153;SDS011;32907;41.412;2.164;2023-04-23T00:40:47;12.27;;;6.90;;
47153;SDS011;32907;41.412;2.164;2023-04-23T00:43:15;15.98;;;7.45;;
47153;SDS011;32907;41.412;2.164;2023-04-23T00:45:44;15.05;;;7.35;;
47153;SDS011;32907;41.412;2.164;2023-04-23T00:48:18;12.77;;;6.50;;
47153;SDS011;32907;41.412;2.164;2023-04-23T00:50:46;14.27;;;7.05;;
47153;SDS011;32907;41.412;2.164;2023-04-23T00:53:14;11.77;;;5.45;;
47153;SDS011;32907;41.412;2.164;2023-04-23T00:55:43;10.65;;;5.75;;
47153;SDS011;32907;41.412;2.164;2023-04-23T00:58:14;13.80;;;4.95;;
47153;SDS011;32907;41.412;2.164;2023-04-23T01:00:43;9.68;;;4.65;;
47153;SDS011;32907;41.412;2.164;2023-04-23T01:03:15;10.85;;;4.88;;
47153;SDS011;32907;41.412;2.164;2023-04-23T01:05:45;12.48;;;5.07;;
47153;SDS011;32907;41.412;2.164;2023-04-23T01:08:14;13.18;;;5.50;;
47153;SDS011;32907;41.412;2.164;2023-04-23T01:10:46;11.38;;;4.50;;
47153;SDS011;32907;41.412;2.164;2023-04-23T01:13:15;14.70;;;5.75;;
47153;SDS011;32907;41.412;2.164;2023-04-23T01:15:43;10.57;;;5.82;;
47153;SDS011;32907;41.412;2.164;2023-04-23T01:18:13;10.68;;;5.28;;
47153;SDS011;32907;41.412;2.164;2023-04-23T01:20:41;11.75;;;5.60;;
47153;SDS011;32907;41.412;2.164;2023-04-23T01:23:10;12.95;;;5.53;;
47153;SDS011;32907;41.412;2.164;2023-04-23T01:25:38;14.52;;;5.90;;
47153;SDS011;32907;41.412;2.164;2023-04-23T01:28:06;7.82;;;4.35;;
47153;SDS011;32907;41.412;2.164;2023-04-23T01:30:35;9.18;;;5.00;;
47153;SDS011;32907;41.412;2.164;2023-04-23T01:33:03;10.75;;;4.88;;
47153;SDS011;32907;41.412;2.164;2023-04-23T01:35:32;9.73;;;4.80;;
47153;SDS011;32907;41.412;2.164;2023-04-23T01:38:04;8.07;;;4.30;;
47153;SDS011;32907;41.412;2.164;2023-04-23T01:40:34;9.50;;;4.45;;
47153;SDS011;32907;41.412;2.164;2023-04-23T01:43:02;8.20;;;3.85;;
47153;SDS011;32907;41.412;2.164;2023-04-23T01:45:31;11.20;;;4.43;;
47153;SDS011;32907;41.412;2.164;2023-04-23T01:47:59;9.50;;;4.10;;
47153;SDS011;32907;41.412;2.164;2023-04-23T01:50:27;11.93;;;4.22;;
47153;SDS011;32907;41.412;2.164;2023-04-23T01:52:56;10.13;;;3.53;;
47153;SDS011;32907;41.412;2.164;2023-04-23T01:55:24;7.78;;;3.85;;
47153;SDS011;32907;41.412;2.164;2023-04-23T01:57:52;9.52;;;4.00;;
47153;SDS011;32907;41.412;2.164;2023-04-23T02:00:20;11.15;;;4.03;;
47153;SDS011;32907;41.412;2.164;2023-04-23T02:02:48;9.68;;;3.88;;
47153;SDS011;32907;41.412;2.164;2023-04-23T02:05:19;9.60;;;4.30;;
47153;SDS011;32907;41.412;2.164;2023-04-23T02:07:48;8.48;;;3.90;;
47153;SDS011;32907;41.412;2.164;2023-04-23T02:10:17;10.15;;;4.10;;
47153;SDS011;32907;41.412;2.164;2023-04-23T02:12:45;11.13;;;4.57;;
47153;SDS011;32907;41.412;2.164;2023-04-23T02:15:14;8.35;;;4.15;;
47153;SDS011;32907;41.412;2.164;2023-04-23T02:17:42;9.85;;;4.43;;
47153;SDS011;32907;41.412;2.164;2023-04-23T02:20:11;6.00;;;3.33;;
47153;SDS011;32907;41.412;2.164;2023-04-23T02:22:40;10.10;;;3.70;;
47153;SDS011;32907;41.412;2.164;2023-04-23T02:25:09;10.35;;;4.10;;
47153;SDS011;32907;41.412;2.164;2023-04-23T02:27:37;11.20;;;4.00;;
47153;SDS011;32907;41.412;2.164;2023-04-23T02:30:05;8.80;;;3.53;;
47153;SDS011;32907;41.412;2.164;2023-04-23T02:32:35;8.90;;;3.88;;
47153;SDS011;32907;41.412;2.164;2023-04-23T02:35:04;10.80;;;3.97;;
47153;SDS011;32907;41.412;2.164;2023-04-23T02:37:33;7.43;;;3.50;;
47153;SDS011;32907;41.412;2.164;2023-04-23T02:40:03;7.53;;;3.80;;
47153;SDS011;32907;41.412;2.164;2023-04-23T02:42:34;8.43;;;3.50;;
47153;SDS011;32907;41.412;2.164;2023-04-23T02:45:02;10.10;;;4.00;;
47153;SDS011;32907;41.412;2.164;2023-04-23T02:47:30;7.85;;;3.20;;
47153;SDS011;32907;41.412;2.164;2023-04-23T02:49:58;7.82;;;3.53;;
47153;SDS011;32907;41.412;2.164;2023-04-23T02:52:30;11.40;;;3.53;;
47153;SDS011;32907;41.412;2.164;2023-04-23T02:54:59;8.57;;;3.15;;
47153;SDS011;32907;41.412;2.164;2023-04-23T02:57:28;8.10;;;3.47;;
47153;SDS011;32907;41.412;2.164;2023-04-23T02:59:56;7.75;;;3.30;;
47153;SDS011;32907;41.412;2.164;2023-04-23T03:02:31;7.63;;;3.20;;
47153;SDS011;32907;41.412;2.164;2023-04-23T03:04:58;6.22;;;3.83;;
47153;SDS011;32907;41.412;2.164;2023-04-23T03:07:30;11.32;;;4.10;;
47153;SDS011;32907;41.412;2.164;2023-04-23T03:09:57;8.55;;;3.55;;
47153;SDS011;32907;41.412;2.164;2023-04-23T03:12:25;8.50;;;3.40;;
47153;SDS011;32907;41.412;2.164;2023-04-23T03:14:54;8.45;;;3.47;;
47153;SDS011;32907;41.412;2.164;2023-04-23T03:17:24;9.82;;;3.90;;
47153;SDS011;32907;41.412;2.164;2023-04-23T03:19:52;10.45;;;3.63;;
47153;SDS011;32907;41.412;2.164;2023-04-23T03:22:21;8.02;;;3.50;;
47153;SDS011;32907;41.412;2.164;2023-04-23T03:24:49;8.70;;;3.60;;
47153;SDS011;32907;41.412;2.164;2023-04-23T03:27:17;10.48;;;3.72;;
47153;SDS011;32907;41.412;2.164;2023-04-23T03:29:45;8.73;;;3.50;;
47153;SDS011;32907;41.412;2.164;2023-04-23T03:32:13;6.32;;;2.97;;
47153;SDS011;32907;41.412;2.164;2023-04-23T03:34:41;11.38;;;3.17;;
47153;SDS011;32907;41.412;2.164;2023-04-23T03:37:10;9.82;;;3.63;;
47153;SDS011;32907;41.412;2.164;2023-04-23T03:39:38;10.07;;;3.38;;
47153;SDS011;32907;41.412;2.164;2023-04-23T03:42:07;9.30;;;3.97;;
47153;SDS011;32907;41.412;2.164;2023-04-23T03:44:37;8.80;;;3.97;;
47153;SDS011;32907;41.412;2.164;2023-04-23T03:47:05;8.13;;;3.17;;
47153;SDS011;32907;41.412;2.164;2023-04-23T03:49:34;7.63;;;3.20;;
47153;SDS011;32907;41.412;2.164;2023-04-23T03:52:03;11.98;;;3.60;;
47153;SDS011;32907;41.412;2.164;2023-04-23T03:54:33;6.45;;;3.55;;
47153;SDS011;32907;41.412;2.164;2023-04-23T03:57:08;9.23;;;3.95;;
47153;SDS011;32907;41.412;2.164;2023-04-23T03:59:56;6.47;;;3.67;;
47153;SDS011;32907;41.412;2.164;2023-04-23T04:02:24;9.52;;;4.13;;
47153;SDS011;32907;41.412;2.164;2023-04-23T04:04:52;8.50;;;3.50;;
47153;SDS011;32907;41.412;2.164;2023-04-23T04:07:23;8.05;;;3.58;;
47153;SDS011;32907;41.412;2.164;2023-04-23T04:09:54;9.70;;;3.60;;
47153;SDS011;32907;41.412;2.164;2023-04-23T04:12:24;6.85;;;3.55;;
47153;SDS011;32907;41.412;2.164;2023-04-23T04:14:52;8.25;;;3.63;;
47153;SDS011;32907;41.412;2.164;2023-04-23T04:17:20;8.18;;;3.50;;
47153;SDS011;32907;41.412;2.164;2023-04-23T04:19:48;6.75;;;3.08;;
47153;SDS011;32907;41.412;2.164;2023-04-23T04:22:15;8.68;;;3.53;;
47153;SDS011;32907;41.412;2.164;2023-04-23T04:24:43;8.95;;;4.10;;
47153;SDS011;32907;41.412;2.164;2023-04-23T04:27:13;9.32;;;3.83;;
47153;SDS011;32907;41.412;2.164;2023-04-23T04:29:42;9.15;;;3.78;;
47153;SDS011;32907;41.412;2.164;2023-04-23T04:32:11;7.88;;;3.50;;
47153;SDS011;32907;41.412;2.164;2023-04-23T04:34:40;10.63;;;3.75;;
47153;SDS011;32907;41.412;2.164;2023-04-23T04:37:08;10.07;;;3.00;;
47153;SDS011;32907;41.412;2.164;2023-04-23T04:39:38;7.60;;;3.38;;
47153;SDS011;32907;41.412;2.164;2023-04-23T04:42:07;7.50;;;3.53;;
47153;SDS011;32907;41.412;2.164;2023-04-23T04:44:34;6.72;;;3.20;;
47153;SDS011;32907;41.412;2.164;2023-04-23T04:47:04;9.05;;;3.70;;
47153;SDS011;32907;41.412;2.164;2023-04-23T04:49:35;7.25;;;3.67;;
47153;SDS011;32907;41.412;2.164;2023-04-23T04:52:06;8.75;;;4.13;;
47153;SDS011;32907;41.412;2.164;2023-04-23T04:54:34;7.80;;;3.30;;
47153;SDS011;32907;41.412;2.164;2023-04-23T04:57:02;7.70;;;3.25;;
47153;SDS011;32907;41.412;2.164;2023-04-23T04:59:30;7.30;;;3.28;;
47153;SDS011;32907;41.412;2.164;2023-04-23T05:01:58;6.45;;;3.28;;
47153;SDS011;32907;41.412;2.164;2023-04-23T05:04:26;6.43;;;2.90;;
47153;SDS011;32907;41.412;2.164;2023-04-23T05:06:56;6.70;;;3.10;;
47153;SDS011;32907;41.412;2.164;2023-04-23T05:09:24;7.63;;;3.30;;
47153;SDS011;32907;41.412;2.164;2023-04-23T05:11:54;7.07;;;2.75;;
47153;SDS011;32907;41.412;2.164;2023-04-23T05:14:22;8.73;;;2.95;;
47153;SDS011;32907;41.412;2.164;2023-04-23T05:16:52;8.05;;;3.00;;
47153;SDS011;32907;41.412;2.164;2023-04-23T05:19:20;7.45;;;3.50;;
47153;SDS011;32907;41.412;2.164;2023-04-23T05:21:48;8.38;;;3.35;;
47153;SDS011;32907;41.412;2.164;2023-04-23T05:24:15;6.45;;;3.13;;
47153;SDS011;32907;41.412;2.164;2023-04-23T05:26:43;7.45;;;3.47;;
47153;SDS011;32907;41.412;2.164;2023-04-23T05:29:11;7.97;;;4.15;;
47153;SDS011;32907;41.412;2.164;2023-04-23T05:31:44;8.02;;;3.72;;
47153;SDS011;32907;41.412;2.164;2023-04-23T05:34:12;8.73;;;3.70;;
47153;SDS011;32907;41.412;2.164;2023-04-23T05:36:39;8.98;;;3.60;;
47153;SDS011;32907;41.412;2.164;2023-04-23T05:39:07;10.52;;;4.18;;
47153;SDS011;32907;41.412;2.164;2023-04-23T05:41:35;9.32;;;3.75;;
47153;SDS011;32907;41.412;2.164;2023-04-23T05:44:03;6.97;;;3.22;;
47153;SDS011;32907;41.412;2.164;2023-04-23T05:46:31;11.20;;;4.30;;
47153;SDS011;32907;41.412;2.164;2023-04-23T05:48:58;9.48;;;3.95;;
47153;SDS011;32907;41.412;2.164;2023-04-23T05:51:27;6.95;;;4.25;;
47153;SDS011;32907;41.412;2.164;2023-04-23T05:53:54;8.68;;;3.60;;
47153;SDS011;32907;41.412;2.164;2023-04-23T05:56:22;6.75;;;3.53;;
47153;SDS011;32907;41.412;2.164;2023-04-23T05:58:50;8.85;;;4.00;;
47153;SDS011;32907;41.412;2.164;2023-04-23T06:01:18;10.05;;;3.55;;
47153;SDS011;32907;41.412;2.164;2023-04-23T06:03:46;10.73;;;4.18;;
47153;SDS011;32907;41.412;2.164;2023-04-23T06:06:14;10.10;;;3.90;;
47153;SDS011;32907;41.412;2.164;2023-04-23T06:08:43;9.45;;;3.75;;
47153;SDS011;32907;41.412;2.164;2023-04-23T06:11:11;6.72;;;3.47;;
47153;SDS011;32907;41.412;2.164;2023-04-23T06:13:39;9.60;;;3.88;;
47153;SDS011;32907;41.412;2.164;2023-04-23T06:16:10;8.55;;;3.85;;
47153;SDS011;32907;41.412;2.164;2023-04-23T06:18:38;7.75;;;3.40;;
47153;SDS011;32907;41.412;2.164;2023-04-23T06:21:06;8.70;;;3.80;;
47153;SDS011;32907;41.412;2.164;2023-04-23T06:23:35;6.85;;;3.47;;
47153;SDS011;32907;41.412;2.164;2023-04-23T06:26:03;8.88;;;4.10;;
47153;SDS011;32907;41.412;2.164;2023-04-23T06:28:31;9.50;;;3.58;;
47153;SDS011;32907;41.412;2.164;2023-04-23T06:31:17;9.25;;;4.28;;
47153;SDS011;32907;41.412;2.164;2023-04-23T06:33:46;7.60;;;3.90;;
47153;SDS011;32907;41.412;2.164;2023-04-23T06:36:14;9.02;;;4.15;;
47153;SDS011;32907;41.412;2.164;2023-04-23T06:38:43;8.73;;;4.25;;
47153;SDS011;32907;41.412;2.164;2023-04-23T06:41:12;11.57;;;4.18;;
47153;SDS011;32907;41.412;2.164;2023-04-23T06:43:41;9.75;;;4.70;;
47153;SDS011;32907;41.412;2.164;2023-04-23T06:46:30;12.15;;;4.70;;
47153;SDS011;32907;41.412;2.164;2023-04-23T06:48:58;9.95;;;4.63;;
47153;SDS011;32907;41.412;2.164;2023-04-23T06:51:26;10.40;;;4.40;;
47153;SDS011;32907;41.412;2.164;2023-04-23T06:53:54;10.90;;;4.60;;
47153;SDS011;32907;41.412;2.164;2023-04-23T06:56:22;11.60;;;4.82;;
47153;SDS011;32907;41.412;2.164;2023-04-23T06:58:50;12.88;;;4.97;;
47153;SDS011;32907;41.412;2.164;2023-04-23T07:01:21;13.60;;;5.57;;
47153;SDS011;32907;41.412;2.164;2023-04-23T07:03:49;11.25;;;4.43;;
47153;SDS011;32907;41.412;2.164;2023-04-23T07:06:20;12.02;;;5.22;;
47153;SDS011;32907;41.412;2.164;2023-04-23T07:08:49;10.85;;;5.05;;
47153;SDS011;32907;41.412;2.164;2023-04-23T07:11:17;7.75;;;4.60;;
47153;SDS011;32907;41.412;2.164;2023-04-23T07:13:44;10.10;;;4.63;;
47153;SDS011;32907;41.412;2.164;2023-04-23T07:16:12;9.18;;;4.50;;
47153;SDS011;32907;41.412;2.164;2023-04-23T07:18:40;9.65;;;4.00;;
47153;SDS011;32907;41.412;2.164;2023-04-23T07:21:08;11.88;;;5.40;;
47153;SDS011;32907;41.412;2.164;2023-04-23T07:23:37;24.08;;;9.50;;
47153;SDS011;32907;41.412;2.164;2023-04-23T07:26:05;21.05;;;10.00;;
47153;SDS011;32907;41.412;2.164;2023-04-23T07:28:33;21.48;;;10.32;;
47153;SDS011;32907;41.412;2.164;2023-04-23T07:31:01;22.60;;;9.35;;
47153;SDS011;32907;41.412;2.164;2023-04-23T07:33:29;17.77;;;7.72;;
47153;SDS011;32907;41.412;2.164;2023-04-23T07:35:58;14.65;;;7.00;;
47153;SDS011;32907;41.412;2.164;2023-04-23T07:38:32;16.77;;;5.90;;
47153;SDS011;32907;41.412;2.164;2023-04-23T07:41:03;12.55;;;5.03;;
47153;SDS011;32907;41.412;2.164;2023-04-23T07:43:49;12.65;;;5.45;;
47153;SDS011;32907;41.412;2.164;2023-04-23T07:46:17;12.95;;;5.03;;
47153;SDS011;32907;41.412;2.164;2023-04-23T07:48:49;14.48;;;6.10;;
47153;SDS011;32907;41.412;2.164;2023-04-23T07:51:26;13.55;;;5.68;;
47153;SDS011;32907;41.412;2.164;2023-04-23T07:53:55;9.95;;;5.40;;
47153;SDS011;32907;41.412;2.164;2023-04-23T07:56:23;10.55;;;5.75;;
47153;SDS011;32907;41.412;2.164;2023-04-23T07:58:51;13.38;;;6.13;;
47153;SDS011;32907;41.412;2.164;2023-04-23T08:01:27;13.38;;;6.25;;
47153;SDS011;32907;41.412;2.164;2023-04-23T08:03:59;13.95;;;6.85;;
47153;SDS011;32907;41.412;2.164;2023-04-23T08:06:27;15.43;;;8.18;;
47153;SDS011;32907;41.412;2.164;2023-04-23T08:08:57;12.07;;;6.78;;
47153;SDS011;32907;41.412;2.164;2023-04-23T08:11:25;12.82;;;6.10;;
47153;SDS011;32907;41.412;2.164;2023-04-23T08:13:55;15.65;;;6.95;;
47153;SDS011;32907;41.412;2.164;2023-04-23T08:16:24;10.88;;;5.47;;
47153;SDS011;32907;41.412;2.164;2023-04-23T08:18:52;10.48;;;5.85;;
47153;SDS011;32907;41.412;2.164;2023-04-23T08:21:31;11.55;;;5.60;;
47153;SDS011;32907;41.412;2.164;2023-04-23T08:23:59;9.90;;;5.78;;
47153;SDS011;32907;41.412;2.164;2023-04-23T08:26:29;12.45;;;5.82;;
47153;SDS011;32907;41.412;2.164;2023-04-23T08:28:58;13.32;;;6.50;;
47153;SDS011;32907;41.412;2.164;2023-04-23T08:31:27;14.05;;;6.45;;
47153;SDS011;32907;41.412;2.164;2023-04-23T08:33:55;12.60;;;5.75;;
47153;SDS011;32907;41.412;2.164;2023-04-23T08:36:23;9.68;;;5.63;;
47153;SDS011;32907;41.412;2.164;2023-04-23T08:38:51;29.90;;;9.85;;
47153;SDS011;32907;41.412;2.164;2023-04-23T08:41:21;46.90;;;13.98;;
47153;SDS011;32907;41.412;2.164;2023-04-23T08:43:53;40.42;;;13.05;;
47153;SDS011;32907;41.412;2.164;2023-04-23T08:46:30;23.60;;;8.95;;
47153;SDS011;32907;41.412;2.164;2023-04-23T08:49:01;20.02;;;8.60;;
47153;SDS011;32907;41.412;2.164;2023-04-23T08:51:30;19.00;;;9.68;;
47153;SDS011;32907;41.412;2.164;2023-04-23T08:54:04;17.65;;;9.15;;
47153;SDS011;32907;41.412;2.164;2023-04-23T08:56:38;22.42;;;9.05;;
47153;SDS011;32907;41.412;2.164;2023-04-23T08:59:08;15.57;;;8.95;;
47153;SDS011;32907;41.412;2.164;2023-04-23T09:01:40;15.82;;;7.88;;
47153;SDS011;32907;41.412;2.164;2023-04-23T09:04:11;16.65;;;7.63;;
47153;SDS011;32907;41.412;2.164;2023-04-23T09:06:49;16.50;;;8.07;;
47153;SDS011;32907;41.412;2.164;2023-04-23T09:09:28;17.00;;;7.25;;
47153;SDS011;32907;41.412;2.164;2023-04-23T09:12:00;12.73;;;7.05;;
47153;SDS011;32907;41.412;2.164;2023-04-23T09:14:28;15.02;;;7.07;;
47153;SDS011;32907;41.412;2.164;2023-04-23T09:17:12;17.20;;;6.90;;
47153;SDS011;32907;41.412;2.164;2023-04-23T09:19:40;16.95;;;7.15;;
47153;SDS011;32907;41.412;2.164;2023-04-23T09:25:30;11.35;;;6.30;;
47153;SDS011;32907;41.412;2.164;2023-04-23T09:28:06;9.98;;;6.22;;
47153;SDS011;32907;41.412;2.164;2023-04-23T09:30:44;16.58;;;8.95;;
47153;SDS011;32907;41.412;2.164;2023-04-23T09:33:27;14.45;;;8.10;;
47153;SDS011;32907;41.412;2.164;2023-04-23T09:36:08;13.98;;;8.13;;
47153;SDS011;32907;41.412;2.164;2023-04-23T09:38:39;14.75;;;8.05;;
47153;SDS011;32907;41.412;2.164;2023-04-23T09:41:24;14.32;;;8.35;;
47153;SDS011;32907;41.412;2.164;2023-04-23T09:43:53;18.55;;;8.40;;
47153;SDS011;32907;41.412;2.164;2023-04-23T09:49:06;9.60;;;6.40;;
47153;SDS011;32907;41.412;2.164;2023-04-23T09:51:35;11.55;;;6.70;;
47153;SDS011;32907;41.412;2.164;2023-04-23T09:56:43;13.20;;;6.78;;
47153;SDS011;32907;41.412;2.164;2023-04-23T09:59:25;12.18;;;6.05;;
47153;SDS011;32907;41.412;2.164;2023-04-23T10:02:25;9.32;;;5.85;;
47153;SDS011;32907;41.412;2.164;2023-04-23T10:04:54;11.05;;;6.18;;
47153;SDS011;32907;41.412;2.164;2023-04-23T10:07:43;12.18;;;6.10;;
47153;SDS011;32907;41.412;2.164;2023-04-23T10:10:19;9.68;;;5.85;;
47153;SDS011;32907;41.412;2.164;2023-04-23T10:12:47;12.68;;;6.78;;
47153;SDS011;32907;41.412;2.164;2023-04-23T10:15:22;11.65;;;6.07;;
47153;SDS011;32907;41.412;2.164;2023-04-23T10:17:53;10.15;;;6.57;;
47153;SDS011;32907;41.412;2.164;2023-04-23T10:20:22;15.80;;;7.80;;
47153;SDS011;32907;41.412;2.164;2023-04-23T10:22:50;11.90;;;7.30;;
47153;SDS011;32907;41.412;2.164;2023-04-23T10:25:21;13.43;;;7.28;;
47153;SDS011;32907;41.412;2.164;2023-04-23T10:27:51;16.75;;;10.57;;
47153;SDS011;32907;41.412;2.164;2023-04-23T10:30:21;17.60;;;12.85;;
47153;SDS011;32907;41.412;2.164;2023-04-23T10:32:49;22.52;;;15.35;;
47153;SDS011;32907;41.412;2.164;2023-04-23T10:35:18;20.80;;;15.05;;
47153;SDS011;32907;41.412;2.164;2023-04-23T10:37:46;21.42;;;15.88;;
47153;SDS011;32907;41.412;2.164;2023-04-23T10:43:09;20.63;;;15.50;;
47153;SDS011;32907;41.412;2.164;2023-04-23T10:45:37;18.85;;;13.27;;
47153;SDS011;32907;41.412;2.164;2023-04-23T10:49:18;21.15;;;15.18;;
47153;SDS011;32907;41.412;2.164;2023-04-23T10:54:49;24.98;;;18.30;;
47153;SDS011;32907;41.412;2.164;2023-04-23T10:57:23;22.85;;;16.75;;
47153;SDS011;32907;41.412;2.164;2023-04-23T10:59:52;21.38;;;15.68;;
47153;SDS011;32907;41.412;2.164;2023-04-23T11:02:43;25.45;;;16.77;;
47153;SDS011;32907;41.412;2.164;2023-04-23T11:05:34;21.35;;;14.63;;
47153;SDS011;32907;41.412;2.164;2023-04-23T11:08:06;17.42;;;13.23;;
47153;SDS011;32907;41.412;2.164;2023-04-23T11:10:56;15.75;;;13.52;;
47153;SDS011;32907;41.412;2.164;2023-04-23T11:13:25;21.17;;;13.40;;
47153;SDS011;32907;41.412;2.164;2023-04-23T11:19:08;20.27;;;14.75;;
47153;SDS011;32907;41.412;2.164;2023-04-23T11:27:14;23.17;;;14.60;;
47153;SDS011;32907;41.412;2.164;2023-04-23T11:29:45;20.33;;;12.88;;
47153;SDS011;32907;41.412;2.164;2023-04-23T11:32:14;15.43;;;11.27;;
47153;SDS011;32907;41.412;2.164;2023-04-23T11:34:51;17.55;;;10.13;;
47153;SDS011;32907;41.412;2.164;2023-04-23T11:37:20;15.68;;;10.05;;
47153;SDS011;32907;41.412;2.164;2023-04-23T11:39:48;16.67;;;9.95;;
47153;SDS011;32907;41.412;2.164;2023-04-23T11:42:22;18.17;;;9.20;;
47153;SDS011;32907;41.412;2.164;2023-04-23T11:44:51;14.38;;;9.15;;
47153;SDS011;32907;41.412;2.164;2023-04-23T11:47:19;16.63;;;9.52;;
47153;SDS011;32907;41.412;2.164;2023-04-23T11:49:50;19.52;;;9.85;;
47153;SDS011;32907;41.412;2.164;2023-04-23T11:52:18;15.95;;;8.48;;
47153;SDS011;32907;41.412;2.164;2023-04-23T11:54:45;12.40;;;8.15;;
47153;SDS011;32907;41.412;2.164;2023-04-23T11:57:13;21.27;;;12.05;;
47153;SDS011;32907;41.412;2.164;2023-04-23T11:59:41;26.00;;;13.90;;
47153;SDS011;32907;41.412;2.164;2023-04-23T12:02:12;20.35;;;13.27;;
47153;SDS011;32907;41.412;2.164;2023-04-23T12:04:42;36.05;;;18.65;;
47153;SDS011;32907;41.412;2.164;2023-04-23T12:07:10;34.13;;;17.13;;
47153;SDS011;32907;41.412;2.164;2023-04-23T12:09:52;26.55;;;13.43;;
47153;SDS011;32907;41.412;2.164;2023-04-23T12:12:33;40.90;;;16.92;;
47153;SDS011;32907;41.412;2.164;2023-04-23T12:15:04;67.18;;;31.52;;
47153;SDS011;32907;41.412;2.164;2023-04-23T12:17:34;141.13;;;66.95;;
47153;SDS011;32907;41.412;2.164;2023-04-23T12:20:03;76.60;;;40.03;;
47153;SDS011;32907;41.412;2.164;2023-04-23T12:22:33;57.40;;;34.92;;
47153;SDS011;32907;41.412;2.164;2023-04-23T12:25:03;46.15;;;30.02;;
47153;SDS011;32907;41.412;2.164;2023-04-23T12:27:39;39.70;;;26.70;;
47153;SDS011;32907;41.412;2.164;2023-04-23T12:30:09;34.58;;;22.65;;
47153;SDS011;32907;41.412;2.164;2023-04-23T12:32:39;23.17;;;15.85;;
47153;SDS011;32907;41.412;2.164;2023-04-23T12:35:07;18.13;;;11.10;;
47153;SDS011;32907;41.412;2.164;2023-04-23T12:37:37;18.90;;;10.00;;
47153;SDS011;32907;41.412;2.164;2023-04-23T12:40:05;14.45;;;8.98;;
47153;SDS011;32907;41.412;2.164;2023-04-23T12:42:33;13.43;;;8.13;;
47153;SDS011;32907;41.412;2.164;2023-04-23T12:45:06;20.42;;;10.68;;
47153;SDS011;32907;41.412;2.164;2023-04-23T12:47:36;18.40;;;11.82;;
47153;SDS011;32907;41.412;2.164;2023-04-23T12:50:04;21.48;;;14.45;;
47153;SDS011;32907;41.412;2.164;2023-04-23T12:52:32;17.30;;;11.98;;
47153;SDS011;32907;41.412;2.164;2023-04-23T12:55:00;16.40;;;10.27;;
47153;SDS011;32907;41.412;2.164;2023-04-23T12:57:31;17.13;;;10.30;;
47153;SDS011;32907;41.412;2.164;2023-04-23T12:59:59;14.10;;;10.00;;
47153;SDS011;32907;41.412;2.164;2023-04-23T13:02:27;16.20;;;9.57;;
47153;SDS011;32907;41.412;2.164;2023-04-23T13:04:55;15.50;;;8.75;;
47153;SDS011;32907;41.412;2.164;2023-04-23T13:07:27;14.20;;;8.23;;
47153;SDS011;32907;41.412;2.164;2023-04-23T13:09:55;17.08;;;8.63;;
47153;SDS011;32907;41.412;2.164;2023-04-23T13:12:23;12.63;;;6.97;;
47153;SDS011;32907;41.412;2.164;2023-04-23T13:14:51;12.02;;;6.60;;
47153;SDS011;32907;41.412;2.164;2023-04-23T13:17:19;13.10;;;7.10;;
47153;SDS011;32907;41.412;2.164;2023-04-23T13:19:47;13.23;;;6.30;;
47153;SDS011;32907;41.412;2.164;2023-04-23T13:22:15;9.73;;;6.05;;
47153;SDS011;32907;41.412;2.164;2023-04-23T13:24:43;14.73;;;7.30;;
47153;SDS011;32907;41.412;2.164;2023-04-23T13:27:13;16.92;;;8.50;;
47153;SDS011;32907;41.412;2.164;2023-04-23T13:29:41;13.70;;;8.55;;
47153;SDS011;32907;41.412;2.164;2023-04-23T13:32:09;14.10;;;9.13;;
47153;SDS011;32907;41.412;2.164;2023-04-23T13:34:40;10.52;;;8.18;;
47153;SDS011;32907;41.412;2.164;2023-04-23T13:37:08;13.98;;;9.00;;
47153;SDS011;32907;41.412;2.164;2023-04-23T13:39:36;14.85;;;8.70;;
47153;SDS011;32907;41.412;2.164;2023-04-23T13:42:07;12.77;;;8.43;;
47153;SDS011;32907;41.412;2.164;2023-04-23T13:44:36;16.23;;;8.50;;
47153;SDS011;32907;41.412;2.164;2023-04-23T13:47:04;14.27;;;9.27;;
47153;SDS011;32907;41.412;2.164;2023-04-23T13:49:32;16.35;;;9.30;;
47153;SDS011;32907;41.412;2.164;2023-04-23T13:52:01;13.40;;;8.65;;
47153;SDS011;32907;41.412;2.164;2023-04-23T13:54:33;13.15;;;7.60;;
47153;SDS011;32907;41.412;2.164;2023-04-23T13:57:02;9.60;;;6.53;;
47153;SDS011;32907;41.412;2.164;2023-04-23T13:59:30;9.57;;;6.13;;
47153;SDS011;32907;41.412;2.164;2023-04-23T14:01:57;10.43;;;6.00;;
47153;SDS011;32907;41.412;2.164;2023-04-23T14:04:25;11.77;;;6.18;;
47153;SDS011;32907;41.412;2.164;2023-04-23T14:06:55;10.85;;;5.65;;
47153;SDS011;32907;41.412;2.164;2023-04-23T14:09:23;12.70;;;5.45;;
47153;SDS011;32907;41.412;2.164;2023-04-23T14:11:51;8.57;;;4.80;;
47153;SDS011;32907;41.412;2.164;2023-04-23T14:14:19;9.05;;;4.90;;
47153;SDS011;32907;41.412;2.164;2023-04-23T14:16:47;8.98;;;4.88;;
47153;SDS011;32907;41.412;2.164;2023-04-23T14:19:15;10.98;;;5.60;;
47153;SDS011;32907;41.412;2.164;2023-04-23T14:21:43;13.07;;;5.43;;
47153;SDS011;32907;41.412;2.164;2023-04-23T14:24:27;11.40;;;7.43;;
47153;SDS011;32907;41.412;2.164;2023-04-23T14:27:00;13.93;;;10.65;;
47153;SDS011;32907;41.412;2.164;2023-04-23T14:32:22;12.23;;;8.85;;
47153;SDS011;32907;41.412;2.164;2023-04-23T14:34:50;13.68;;;7.28;;
47153;SDS011;32907;41.412;2.164;2023-04-23T14:37:18;12.85;;;6.78;;
47153;SDS011;32907;41.412;2.164;2023-04-23T14:39:46;9.88;;;5.55;;
47153;SDS011;32907;41.412;2.164;2023-04-23T14:42:15;10.02;;;5.22;;
47153;SDS011;32907;41.412;2.164;2023-04-23T14:44:44;8.98;;;4.80;;
47153;SDS011;32907;41.412;2.164;2023-04-23T14:47:12;12.25;;;5.10;;
47153;SDS011;32907;41.412;2.164;2023-04-23T14:49:41;10.10;;;5.47;;
47153;SDS011;32907;41.412;2.164;2023-04-23T14:52:09;9.90;;;4.57;;
47153;SDS011;32907;41.412;2.164;2023-04-23T14:54:37;9.98;;;4.82;;
47153;SDS011;32907;41.412;2.164;2023-04-23T14:57:05;8.75;;;4.57;;
47153;SDS011;32907;41.412;2.164;2023-04-23T14:59:33;10.13;;;4.53;;
47153;SDS011;32907;41.412;2.164;2023-04-23T15:02:01;8.82;;;3.97;;
47153;SDS011;32907;41.412;2.164;2023-04-23T15:04:29;8.38;;;3.50;;
47153;SDS011;32907;41.412;2.164;2023-04-23T15:06:57;7.28;;;3.10;;
47153;SDS011;32907;41.412;2.164;2023-04-23T15:09:25;9.27;;;4.13;;
47153;SDS011;32907;41.412;2.164;2023-04-23T15:11:53;9.68;;;4.97;;
47153;SDS011;32907;41.412;2.164;2023-04-23T15:14:28;10.45;;;5.03;;
47153;SDS011;32907;41.412;2.164;2023-04-23T15:16:58;8.90;;;5.00;;
47153;SDS011;32907;41.412;2.164;2023-04-23T15:19:26;8.25;;;3.80;;
47153;SDS011;32907;41.412;2.164;2023-04-23T15:21:54;8.93;;;4.10;;